Time;durP1;ratioP1;P1;durP2;ratioP2;P2;SDS_P1;SDS_P2;PMS_P1;PMS_P2;Temp;Humidity;BMP_temperature;BMP_pressure;BME280_temperature;BME280_humidity;BME280_pressure;Samples;Min_cycle;Max_cycle;Signal;HPM_P1;HPM_P2
2022/12/16 00:02:11;;;;;;;16.23;10.20;;;;;;;;;;5071660;28;20207;-85
2022/12/16 00:04:38;;;;;;;16.83;10.20;;;;;;;;;;5065690;28;20191;-85
2022/12/16 00:07:05;;;;;;;16.80;10.37;;;;;;;;;;5069089;28;20203;-85
2022/12/16 00:09:33;;;;;;;19.50;10.67;;;;;;;;;;5069987;28;20199;-85
2022/12/16 00:12:00;;;;;;;16.20;10.60;;;;;;;;;;5070693;28;20218;-85
2022/12/16 00:14:29;;;;;;;17.53;10.40;;;;;;;;;;5070354;28;20203;-85
2022/12/16 00:16:56;;;;;;;13.83;9.03;;;;;;;;;;5070285;28;20200;-85
2022/12/16 00:19:23;;;;;;;14.40;8.87;;;;;;;;;;5070502;28;20191;-85
2022/12/16 00:21:50;;;;;;;15.00;9.83;;;;;;;;;;5071282;28;20195;-85
2022/12/16 00:24:18;;;;;;;18.70;10.77;;;;;;;;;;5069715;28;20240;-85
2022/12/16 00:26:45;;;;;;;17.83;11.57;;;;;;;;;;5070138;28;20201;-84
2022/12/16 00:29:12;;;;;;;18.73;11.00;;;;;;;;;;5067227;28;20198;-85
2022/12/16 00:31:41;;;;;;;17.97;11.53;;;;;;;;;;5069816;28;20214;-85
2022/12/16 00:34:08;;;;;;;18.30;11.83;;;;;;;;;;5070366;28;20203;-86
2022/12/16 00:36:35;;;;;;;16.10;10.30;;;;;;;;;;5069549;28;20213;-86
2022/12/16 00:39:04;;;;;;;14.93;10.03;;;;;;;;;;5066828;28;20199;-86
2022/12/16 00:41:31;;;;;;;16.23;10.30;;;;;;;;;;5071102;28;20210;-85
2022/12/16 00:43:58;;;;;;;17.23;9.90;;;;;;;;;;5069695;28;20214;-85
2022/12/16 00:46:25;;;;;;;17.23;10.37;;;;;;;;;;5069018;28;20241;-85
2022/12/16 00:48:54;;;;;;;15.67;9.63;;;;;;;;;;5070767;28;20195;-85
2022/12/16 00:51:21;;;;;;;14.27;9.30;;;;;;;;;;5070614;28;20230;-86
2022/12/16 00:53:48;;;;;;;15.57;9.40;;;;;;;;;;5067826;28;20210;-86
2022/12/16 00:56:17;;;;;;;14.07;9.37;;;;;;;;;;5070274;28;20198;-85
2022/12/16 00:58:44;;;;;;;16.57;10.03;;;;;;;;;;5068921;28;20194;-85
2022/12/16 01:01:11;;;;;;;15.03;8.93;;;;;;;;;;5070833;28;20213;-85
2022/12/16 01:03:38;;;;;;;15.40;9.57;;;;;;;;;;5071346;28;20199;-85
2022/12/16 01:06:10;;;;;;;15.30;9.30;;;;;;;;;;5065828;28;20211;-85
2022/12/16 01:08:38;;;;;;;13.83;8.80;;;;;;;;;;5066719;28;20230;-85
2022/12/16 01:11:05;;;;;;;15.07;9.00;;;;;;;;;;5069907;28;20218;-85
2022/12/16 01:13:33;;;;;;;14.20;8.67;;;;;;;;;;5066366;28;20186;-86
2022/12/16 01:16:01;;;;;;;15.33;9.50;;;;;;;;;;5071665;28;20262;-85
2022/12/16 01:18:28;;;;;;;14.10;8.50;;;;;;;;;;5072520;28;20221;-85
2022/12/16 01:21:02;;;;;;;14.73;9.20;;;;;;;;;;5070729;28;20202;-85
2022/12/16 01:23:31;;;;;;;14.33;8.47;;;;;;;;;;5074719;28;20201;-85
2022/12/16 01:26:00;;;;;;;13.87;8.93;;;;;;;;;;5072976;28;20209;-85
2022/12/16 01:28:27;;;;;;;13.60;8.73;;;;;;;;;;5072866;28;20202;-85
2022/12/16 01:30:56;;;;;;;15.13;8.60;;;;;;;;;;5073052;28;20336;-87
2022/12/16 01:33:24;;;;;;;12.53;7.93;;;;;;;;;;5074819;28;20202;-85
2022/12/16 01:35:58;;;;;;;13.77;8.37;;;;;;;;;;5074369;28;20217;-85
2022/12/16 01:38:25;;;;;;;11.93;7.73;;;;;;;;;;5072945;28;20305;-85
2022/12/16 01:40:54;;;;;;;13.43;7.97;;;;;;;;;;5071023;28;20254;-85
2022/12/16 01:43:24;;;;;;;13.23;7.87;;;;;;;;;;5070834;28;20203;-85
2022/12/16 01:45:52;;;;;;;14.17;7.83;;;;;;;;;;5064530;28;20199;-83
2022/12/16 01:48:26;;;;;;;12.23;7.50;;;;;;;;;;5071323;28;20305;-85
2022/12/16 01:50:55;;;;;;;12.37;7.87;;;;;;;;;;5070986;28;20212;-85
2022/12/16 01:53:22;;;;;;;15.17;8.23;;;;;;;;;;5073159;28;20263;-85
2022/12/16 01:55:51;;;;;;;11.27;7.47;;;;;;;;;;5072455;28;20206;-85
2022/12/16 01:58:22;;;;;;;13.10;8.00;;;;;;;;;;5074084;28;20190;-85
2022/12/16 02:00:49;;;;;;;12.67;7.57;;;;;;;;;;5071079;28;20198;-86
2022/12/16 02:03:17;;;;;;;11.80;7.33;;;;;;;;;;5071802;28;20198;-85
2022/12/16 02:05:46;;;;;;;14.30;8.27;;;;;;;;;;5065858;28;20211;-85
2022/12/16 02:08:14;;;;;;;13.33;8.17;;;;;;;;;;5073568;28;20214;-85
2022/12/16 02:10:48;;;;;;;14.63;8.27;;;;;;;;;;5071228;28;20195;-86
2022/12/16 02:13:19;;;;;;;12.37;7.70;;;;;;;;;;5070119;28;20217;-85
2022/12/16 02:15:53;;;;;;;12.30;7.87;;;;;;;;;;5073517;28;20197;-85
2022/12/16 02:18:24;;;;;;;13.10;8.03;;;;;;;;;;5072654;28;20202;-85
2022/12/16 02:21:12;;;;;;;12.27;8.13;;;;;;;;;;5072045;28;20205;-86
2022/12/16 02:23:56;;;;;;;14.20;8.27;;;;;;;;;;5071988;28;20203;-86
2022/12/16 02:26:37;;;;;;;12.90;7.87;;;;;;;;;;5071727;28;20201;-86
2022/12/16 02:29:14;;;;;;;13.67;7.87;;;;;;;;;;5066726;28;20212;-85
2022/12/16 02:31:45;;;;;;;13.67;8.03;;;;;;;;;;5071966;28;20218;-85
2022/12/16 02:34:19;;;;;;;14.57;8.03;;;;;;;;;;5070405;28;20195;-86
2022/12/16 02:36:52;;;;;;;13.10;8.30;;;;;;;;;;5063080;28;20201;-85
2022/12/16 02:39:21;;;;;;;12.33;7.93;;;;;;;;;;5070314;28;20203;-85
2022/12/16 02:41:51;;;;;;;12.87;8.50;;;;;;;;;;5073387;28;20277;-85
2022/12/16 02:44:19;;;;;;;14.17;8.47;;;;;;;;;;5069882;28;20198;-85
2022/12/16 02:46:54;;;;;;;13.00;8.07;;;;;;;;;;5073348;28;20233;-85
2022/12/16 02:49:39;;;;;;;15.23;8.57;;;;;;;;;;5071837;28;20189;-86
2022/12/16 02:52:07;;;;;;;13.10;7.17;;;;;;;;;;5070879;28;20222;-86
2022/12/16 02:54:34;;;;;;;11.40;7.33;;;;;;;;;;5069736;28;20203;-85
2022/12/16 02:57:07;;;;;;;14.00;8.53;;;;;;;;;;5071438;28;20225;-85
2022/12/16 02:59:38;;;;;;;11.77;7.57;;;;;;;;;;5071597;28;20217;-85
2022/12/16 03:02:11;;;;;;;11.43;7.33;;;;;;;;;;5071952;28;20214;-85
2022/12/16 03:04:41;;;;;;;11.63;7.00;;;;;;;;;;5073558;28;20194;-85
2022/12/16 03:07:10;;;;;;;10.87;7.07;;;;;;;;;;5072099;28;20205;-85
2022/12/16 03:09:38;;;;;;;11.30;7.10;;;;;;;;;;5072845;28;20213;-85
2022/12/16 03:12:08;;;;;;;12.57;7.07;;;;;;;;;;5069599;28;20226;-85
2022/12/16 03:14:37;;;;;;;10.70;6.40;;;;;;;;;;5069832;28;20195;-85
2022/12/16 03:17:05;;;;;;;13.87;8.00;;;;;;;;;;5073474;28;20206;-85
2022/12/16 03:19:35;;;;;;;13.00;7.63;;;;;;;;;;5073210;28;20191;-85
2022/12/16 03:22:05;;;;;;;12.73;7.50;;;;;;;;;;5070973;28;20206;-85
2022/12/16 03:24:33;;;;;;;11.67;7.43;;;;;;;;;;5072221;28;20195;-85
2022/12/16 03:27:06;;;;;;;11.00;6.93;;;;;;;;;;5071218;28;20220;-85
2022/12/16 03:29:45;;;;;;;11.33;7.53;;;;;;;;;;5067966;28;20205;-85
2022/12/16 03:32:15;;;;;;;13.00;7.30;;;;;;;;;;5069949;28;20208;-85
2022/12/16 03:34:45;;;;;;;15.73;8.20;;;;;;;;;;5070853;28;20210;-85
2022/12/16 03:37:13;;;;;;;12.60;7.50;;;;;;;;;;5072195;28;20372;-85
2022/12/16 03:39:42;;;;;;;14.83;8.17;;;;;;;;;;5071782;28;20209;-85
2022/12/16 03:42:10;;;;;;;12.37;7.93;;;;;;;;;;5069669;28;20199;-86
2022/12/16 03:44:38;;;;;;;12.43;7.67;;;;;;;;;;5070493;28;20213;-85
2022/12/16 03:47:06;;;;;;;11.83;7.40;;;;;;;;;;5069816;28;20238;-85
2022/12/16 03:49:33;;;;;;;12.00;7.43;;;;;;;;;;5069839;28;20198;-85
2022/12/16 03:52:02;;;;;;;12.00;6.90;;;;;;;;;;5070851;28;20226;-86
2022/12/16 03:54:29;;;;;;;12.07;7.37;;;;;;;;;;5070577;28;20205;-85
2022/12/16 03:56:56;;;;;;;11.77;7.10;;;;;;;;;;5066759;28;20199;-85
2022/12/16 03:59:23;;;;;;;10.53;6.67;;;;;;;;;;5068029;28;20212;-85
2022/12/16 04:01:50;;;;;;;10.67;6.50;;;;;;;;;;5068577;28;20210;-85
2022/12/16 04:04:18;;;;;;;9.77;6.40;;;;;;;;;;5070427;28;20202;-86
2022/12/16 04:07:18;;;;;;;10.17;6.33;;;;;;;;;;5068652;28;20207;-85
2022/12/16 04:09:33;;;;;;;10.10;6.53;;;;;;;;;;5069162;28;20205;-85
2022/12/16 04:25:48;;;;;;;11.93;7.53;;;;;;;;;;5071112;28;20204;-85
2022/12/16 04:28:15;;;;;;;14.13;8.40;;;;;;;;;;5071519;28;20197;-85
2022/12/16 04:30:42;;;;;;;11.93;7.37;;;;;;;;;;5070650;28;20214;-85
